createdAt,value
2023-05-20T00:02:05.931Z,70.64
2023-05-20T00:07:08.622Z,70.81
2023-05-20T00:12:11.345Z,71.15
2023-05-20T00:17:14.155Z,71.21
2023-05-20T00:22:16.820Z,70.88
2023-05-20T00:27:19.621Z,71.08
2023-05-20T00:32:22.345Z,70.97
2023-05-20T00:37:25.420Z,70.27
2023-05-20T00:42:29.179Z,70.10
2023-05-20T00:47:34.515Z,70.53
2023-05-20T00:52:37.784Z,69.93
2023-05-20T00:57:41.029Z,69.50
2023-05-20T01:02:44.092Z,69.48
2023-05-20T01:07:47.149Z,69.16
2023-05-20T01:12:54.846Z,69.39
2023-05-20T01:18:06.281Z,69.19
2023-05-20T01:23:09.197Z,69.48
2023-05-20T01:28:18.155Z,68.88
2023-05-20T01:33:24.616Z,68.88
2023-05-20T01:38:27.587Z,68.46
2023-05-20T01:43:30.821Z,69.01
2023-05-20T01:48:33.645Z,69.30
2023-05-20T01:53:36.528Z,69.53
2023-05-20T01:58:39.411Z,69.68
2023-05-20T02:03:42.273Z,69.60
2023-05-20T02:08:44.979Z,69.88
2023-05-20T02:13:47.946Z,69.78
2023-05-20T02:18:53.249Z,70.22
2023-05-20T02:23:56.146Z,70.38
2023-05-20T02:28:58.947Z,70.15
2023-05-20T02:34:01.846Z,70.34
2023-05-20T02:39:04.687Z,70.09
2023-05-20T02:44:07.498Z,70.48
2023-05-20T02:49:10.394Z,70.52
2023-05-20T02:54:13.120Z,70.39
2023-05-20T02:59:16.214Z,70.59
2023-05-20T03:04:19.425Z,71.10
2023-05-20T03:09:22.161Z,71.25
2023-05-20T03:14:24.947Z,71.40
2023-05-20T03:19:27.759Z,71.83
2023-05-20T03:24:30.628Z,71.26
2023-05-20T03:29:33.781Z,71.42
2023-05-20T03:34:37.019Z,71.16
2023-05-20T03:39:41.514Z,71.95
2023-05-20T03:44:44.622Z,72.50
2023-05-20T03:49:47.462Z,72.88
2023-05-20T03:54:50.319Z,72.77
2023-05-20T03:59:53.104Z,72.21
2023-05-20T04:04:57.890Z,72.37
2023-05-20T04:10:00.908Z,72.64
2023-05-20T04:15:07.318Z,72.39
2023-05-20T04:20:22.157Z,72.01
2023-05-20T04:25:27.609Z,71.55
2023-05-20T04:30:33.616Z,70.82
2023-05-20T04:35:38.372Z,71.17
2023-05-20T04:40:42.475Z,71.63
2023-05-20T04:45:45.997Z,70.75
2023-05-20T04:50:50.281Z,69.39
2023-05-20T04:55:57.189Z,68.73
2023-05-20T05:01:01.642Z,68.14
2023-05-20T05:06:04.826Z,67.35
2023-05-20T05:11:08.009Z,66.99
2023-05-20T05:16:10.969Z,66.41
2023-05-20T05:21:13.953Z,65.26
2023-05-20T05:26:17.751Z,64.29
2023-05-20T05:31:20.936Z,63.68
2023-05-20T05:36:26.103Z,63.08
2023-05-20T05:41:29.044Z,62.09
2023-05-20T05:46:33.830Z,61.43
2023-05-20T05:51:38.779Z,60.91
2023-05-20T05:56:42.192Z,61.05
2023-05-20T06:01:45.113Z,59.86
2023-05-20T06:06:48.638Z,58.33
2023-05-20T06:11:52.232Z,57.34
2023-05-20T06:16:55.034Z,56.99
2023-05-20T06:22:00.846Z,56.08
2023-05-20T06:27:04.310Z,56.69
2023-05-20T06:32:07.476Z,54.97
2023-05-20T06:37:11.542Z,53.57
2023-05-20T06:42:14.331Z,53.00
2023-05-20T06:47:23.599Z,52.95
2023-05-20T06:52:28.076Z,52.24
2023-05-20T06:57:31.570Z,51.53
2023-05-20T07:02:34.695Z,50.59
2023-05-20T07:07:37.673Z,51.43
2023-05-20T07:12:40.600Z,51.68
2023-05-20T07:17:43.485Z,50.26
2023-05-20T07:22:47.877Z,49.00
2023-05-20T07:27:56.937Z,45.80
2023-05-20T07:32:59.760Z,47.32
2023-05-20T07:38:03.011Z,46.40
2023-05-20T07:43:07.844Z,45.20
2023-05-20T07:48:11.158Z,45.35
2023-05-20T07:53:14.156Z,43.44
2023-05-20T07:58:17.080Z,42.70
2023-05-20T08:03:22.567Z,42.25
2023-05-20T08:08:34.842Z,41.78
2023-05-20T08:13:44.155Z,40.55
2023-05-20T08:18:48.019Z,39.32
2023-05-20T08:23:56.118Z,38.67
2023-05-20T08:28:59.021Z,38.68
2023-05-20T08:34:01.900Z,40.21
2023-05-20T08:39:04.810Z,40.48
2023-05-20T08:44:10.752Z,41.57
2023-05-20T08:49:14.984Z,40.69
2023-05-20T08:54:20.591Z,41.25
2023-05-20T08:59:23.595Z,40.91
2023-05-20T09:04:26.250Z,41.29
2023-05-20T09:09:30.336Z,42.55
2023-05-20T09:14:33.009Z,42.61
2023-05-20T09:19:35.985Z,41.16
2023-05-20T09:24:38.783Z,41.92
2023-05-20T09:29:41.770Z,41.94
2023-05-20T09:34:47.681Z,40.05
2023-05-20T09:40:00.556Z,40.63
2023-05-20T09:45:04.576Z,40.08
2023-05-20T09:50:09.417Z,40.74
2023-05-20T09:55:12.244Z,40.85
2023-05-20T10:00:17.806Z,41.28
2023-05-20T10:05:24.438Z,41.55
2023-05-20T10:10:46.190Z,42.59
2023-05-20T10:16:02.057Z,43.48
2023-05-20T10:21:16.722Z,43.70
2023-05-20T10:26:20.084Z,45.05
2023-05-20T10:31:23.732Z,46.04
2023-05-20T10:36:32.029Z,46.97
2023-05-20T10:41:35.015Z,46.11
2023-05-20T10:46:54.004Z,45.76
2023-05-20T10:52:00.866Z,45.07
2023-05-20T10:57:10.552Z,44.42
2023-05-20T11:02:16.174Z,44.08
2023-05-20T11:07:26.752Z,43.44
2023-05-20T11:12:29.590Z,42.82
2023-05-20T11:17:32.349Z,42.59
2023-05-20T11:22:35.105Z,42.58
2023-05-20T11:27:41.484Z,42.18
2023-05-20T11:33:04.621Z,42.10
2023-05-20T11:38:10.570Z,42.53
2023-05-20T11:43:15.723Z,43.33
2023-05-20T11:48:19.971Z,43.88
2023-05-20T11:53:24.461Z,45.27
2023-05-20T11:58:29.830Z,46.49
2023-05-20T12:03:33.169Z,45.81
2023-05-20T12:08:36.475Z,45.11
2023-05-20T12:13:40.370Z,45.48
2023-05-20T12:18:43.173Z,44.74
2023-05-20T12:23:46.059Z,44.47
2023-05-20T12:28:48.769Z,44.23
2023-05-20T12:33:51.585Z,43.78
2023-05-20T12:38:54.459Z,43.53
2023-05-20T12:43:57.466Z,43.13
2023-05-20T12:49:00.261Z,44.40
2023-05-20T12:54:02.977Z,46.87
2023-05-20T12:59:05.955Z,47.76
2023-05-20T13:04:09.165Z,47.98
2023-05-20T13:09:12.714Z,48.39
2023-05-20T13:14:16.956Z,48.30
2023-05-20T13:19:23.415Z,48.90
2023-05-20T13:24:26.216Z,48.47
2023-05-20T13:29:29.256Z,47.28
2023-05-20T13:34:32.127Z,46.70
2023-05-20T13:39:34.919Z,46.55
2023-05-20T13:44:37.679Z,46.82
2023-05-20T13:49:40.389Z,47.60
2023-05-20T13:54:44.828Z,47.35
2023-05-20T13:59:47.627Z,47.28
2023-05-20T14:04:50.403Z,47.95
2023-05-20T14:09:53.191Z,48.58
2023-05-20T14:14:56.558Z,49.35
2023-05-20T14:20:00.799Z,49.80
2023-05-20T14:25:04.159Z,50.06
2023-05-20T14:30:07.686Z,49.67
2023-05-20T14:35:10.567Z,49.69
2023-05-20T14:40:13.678Z,48.87
2023-05-20T14:45:16.551Z,47.32
2023-05-20T14:50:19.257Z,46.64
2023-05-20T14:55:21.911Z,47.10
2023-05-20T15:00:24.827Z,46.79
2023-05-20T15:05:27.548Z,46.09
2023-05-20T15:10:30.271Z,46.15
2023-05-20T15:15:33.909Z,46.82
2023-05-20T15:20:36.856Z,47.18
2023-05-20T15:25:39.542Z,47.51
2023-05-20T15:30:42.221Z,46.87
2023-05-20T15:35:45.128Z,46.53
2023-05-20T15:40:50.511Z,45.62
2023-05-20T15:45:54.348Z,44.92
2023-05-20T15:50:57.155Z,44.08
2023-05-20T15:56:00.154Z,44.13
2023-05-20T16:01:02.876Z,44.99
2023-05-20T16:06:05.729Z,45.10
2023-05-20T16:11:08.616Z,45.77
2023-05-20T16:16:13.665Z,45.96
2023-05-20T16:21:16.675Z,46.69
2023-05-20T16:26:19.625Z,46.77
2023-05-20T16:31:22.426Z,47.17
2023-05-20T16:36:26.065Z,47.13
2023-05-20T16:41:28.855Z,47.59
2023-05-20T16:46:31.600Z,48.14
2023-05-20T16:51:34.409Z,48.41
2023-05-20T16:56:37.254Z,48.48
2023-05-20T17:01:40.160Z,48.34
2023-05-20T17:06:42.905Z,48.70
2023-05-20T17:11:45.615Z,48.64
2023-05-20T17:16:48.295Z,49.36
2023-05-20T17:21:51.133Z,49.78
2023-05-20T17:26:53.770Z,50.96
2023-05-20T17:31:56.650Z,53.65
2023-05-20T17:36:59.418Z,55.15
2023-05-20T17:42:03.033Z,55.76
2023-05-20T17:47:05.746Z,56.42
2023-05-20T17:52:08.536Z,56.60
2023-05-20T17:57:11.298Z,57.91
2023-05-20T18:02:14.104Z,60.91
2023-05-20T18:07:17.887Z,64.73
2023-05-20T18:12:20.687Z,67.60
2023-05-20T18:17:23.458Z,69.55
2023-05-20T18:22:27.173Z,71.06
2023-05-20T18:27:29.867Z,72.52
2023-05-20T18:32:32.614Z,73.27
2023-05-20T18:37:35.717Z,74.27
2023-05-20T18:42:38.563Z,74.93
2023-05-20T18:47:41.815Z,75.53
2023-05-20T18:52:44.575Z,76.63
2023-05-20T18:57:47.528Z,76.78
2023-05-20T19:02:50.265Z,77.31
2023-05-20T19:07:53.060Z,78.25
2023-05-20T19:12:56.242Z,79.21
2023-05-20T19:17:59.109Z,80.37
2023-05-20T19:23:02.027Z,81.34
2023-05-20T19:28:05.075Z,82.56
2023-05-20T19:33:07.815Z,83.57
2023-05-20T19:38:10.917Z,84.42
2023-05-20T19:43:13.684Z,84.89
2023-05-20T19:48:16.866Z,85.63
2023-05-20T19:53:21.027Z,86.44
2023-05-20T19:58:23.837Z,86.18
2023-05-20T20:03:26.578Z,86.84
2023-05-20T20:08:29.271Z,87.42
2023-05-20T20:13:31.931Z,88.00
2023-05-20T20:18:35.332Z,88.37
2023-05-20T20:23:38.094Z,88.53
2023-05-20T20:28:40.779Z,89.04
2023-05-20T20:33:44.097Z,89.52
2023-05-20T20:38:47.276Z,90.26
2023-05-20T20:43:50.705Z,90.15
2023-05-20T20:48:54.389Z,91.32
2023-05-20T20:53:57.171Z,90.62
2023-05-20T20:59:00.421Z,90.80
2023-05-20T21:04:04.618Z,91.69
2023-05-20T21:09:07.572Z,92.42
2023-05-20T21:14:10.868Z,92.14
2023-05-20T21:19:13.456Z,92.59
2023-05-20T21:24:16.099Z,92.86
2023-05-20T21:29:18.657Z,93.45
2023-05-20T21:34:21.268Z,93.49
2023-05-20T21:39:23.830Z,93.38
2023-05-20T21:44:26.616Z,93.85
2023-05-20T21:49:29.258Z,93.82
2023-05-20T21:54:31.828Z,94.09
2023-05-20T21:59:34.425Z,94.12
2023-05-20T22:04:37.403Z,94.52
2023-05-20T22:09:40.005Z,95.14
2023-05-20T22:14:42.629Z,95.91
2023-05-20T22:19:45.278Z,96.44
2023-05-20T22:24:47.859Z,96.51
2023-05-20T22:29:50.990Z,96.98
2023-05-20T22:34:53.799Z,97.96
2023-05-20T22:39:56.781Z,98.25
2023-05-20T22:44:59.585Z,98.05
2023-05-20T22:50:03.264Z,99.05
2023-05-20T22:55:09.084Z,99.23
2023-05-20T23:00:14.215Z,99.57
2023-05-20T23:05:17.407Z,99.83
2023-05-20T23:10:20.464Z,100.00
2023-05-20T23:15:24.427Z,100.00
2023-05-20T23:20:29.676Z,99.94
2023-05-20T23:25:32.619Z,100.00
2023-05-20T23:30:36.220Z,100.00
2023-05-20T23:35:38.941Z,100.00
2023-05-20T23:40:41.601Z,100.00
2023-05-20T23:45:44.294Z,100.00
2023-05-20T23:50:47.015Z,100.00
2023-05-20T23:55:49.831Z,100.00
